Tiempo atmosférico en la estación meteorológica de Arucas, Las Palmas (86 m.)

Fecha
DESCASC
Temp. máxima en grados centígrados (hora)
DESCASC
Temp. mínima en grados centígrados (hora)
DESCASC
Temp. media en grados centígrados
DESCASC
Racha de viento máxima en m/sg (hora)
DESCASC
Velocidad máxima media en intervalos de 10 minutos(hora)
DESCASC
Precipitaciones diarias en mm
DESCASC
Precipitaciones de 00:00 a 06:00 en mm
DESCASC
Precipitaciones de 06:00 a 12:00 en mm
DESCASC
Precipitaciones de 12:00 a 18:00 en mm
DESCASC
Precipitaciones de 18:00 a 24:00 en mm
DESCASC
17-08-2017 25.6 (15:40) 20.7 (05:20) 23.2 5 (10:40) 3.06 (09:50) 0 0 0 0 0
16-08-2017 24.9 (14:30) 22 (02:00) 23.4 5.28 (06:50) 2.78 (06:50) 0 0 0 0 0
15-08-2017 25.2 (16:30) 20.6 (00:00) 22.9 4.72 (23:50) 2.78 (13:10) 0 0 0 0 0
14-08-2017 25.3 (15:10) 20.5 (03:00) 22.9 5.83 (16:00) 3.06 (13:20) 0 0 0 0 0
13-08-2017 25.1 (15:20) 19 (00:00) 22.1 5.83 (15:10) 3.61 (15:10) 0 0 0 0 0
12-08-2017 25.2 (15:40) 20 (00:00) 22.6 3.89 (12:50) 2.5 (21:20) 0 0 0 0 0
11-08-2017 25.1 (14:20) 20.9 (00:00) 23 5.83 (11:30) 2.78 (11:30) 0 0 0 0 0
10-08-2017 24.9 (16:20) 21 (00:00) 22.9 4.72 (12:50) 3.06 (13:00) 0 0 0 0 0
09-08-2017 25.7 (12:40) 21.3 (00:00) 23.5 4.17 (11:40) 1.94 (17:10) 0 0 0 0 0
08-08-2017 25.8 (15:30) 22.4 (00:00) 24.1 5.56 (00:20) 3.89 (00:40) 0 0 0 0 0
07-08-2017 26.1 (14:10) 22.2 (00:00) 24.2 7.22 (22:20) 4.17 (19:30) 0 0 0 0 0
06-08-2017 25.7 (14:40) 21.9 (00:00) 23.8 6.39 (20:00) 4.17 (16:00) 0 0 0 0 0
05-08-2017 26 (15:20) 22.2 (00:00) 24.1 6.39 (20:10) 3.61 (15:40) 0 0 0 0 0
04-08-2017 25.6 (15:50) 20.5 (00:00) 23.1 5.56 (17:40) 3.33 (17:30) 0 0 0 0 0
03-08-2017 24.8 (14:10) 20.8 (00:00) 22.8 7.22 (09:30) 4.72 (09:30) 0 0 0 0 0
02-08-2017 25.5 (14:50) 20.5 (00:00) 23 4.72 (12:50) 2.78 (12:50) 0 0 0 0 0
01-08-2017 25.2 (14:10) 20.9 (00:00) 23.1 5 (14:30) 2.78 (06:20) 0 0 0 0 0
31-07-2017 24.6 (17:00) 20.9 (00:00) 22.8 6.39 (10:40) 3.61 (10:40) 0 0 0 0 0
30-07-2017 23.6 (15:00) 19.7 (00:00) 21.7 5 (13:10) 3.33 (14:10) 0 0 0 0 0
29-07-2017 25.3 (16:10) 19.9 (00:00) 22.6 4.72 (20:00) 2.5 (20:00) 0 0 0 0 0
28-07-2017 29.2 (09:00) 19.8 (00:00) 24.5 7.5 (08:20) 4.72 (11:00) 0 0 0 0 0
27-07-2017 24.4 (15:00) 19.3 (00:00) 21.8 4.44 (13:10) 2.78 (13:00) 0 0 0 0 0
26-07-2017 24.3 (14:30) 20.9 (00:00) 22.6 5.83 (15:40) 3.61 (15:40) 0 0 0 0 0
25-07-2017 24.5 (15:20) 21.2 (00:00) 22.9 4.44 (10:30) 3.06 (12:20) 0 0 0 0 0
24-07-2017 24.6 (15:00) 20.6 (00:00) 22.6 5.83 (02:20) 3.61 (02:00) 0 0 0 0 0
23-07-2017 25 (15:10) 20.5 (00:00) 22.8 8.06 (20:00) 3.89 (02:30) 0 0 0 0 0
22-07-2017 24.7 (15:20) 20.6 (00:00) 22.7 7.5 (08:20) 4.17 (08:20) 0 0 0 0 0
21-07-2017 24.4 (14:00) 20.4 (00:00) 22.4 7.78 (12:20) 4.72 (12:30) 0 0 0 0 0
20-07-2017 24.9 (15:50) 20.3 (00:00) 22.6 7.78 (16:00) 4.17 (15:50) 0.8 0 0.8 0 0
19-07-2017 24.3 (14:30) 20.8 (00:00) 22.5 5.28 (10:30) 3.33 (10:40) 0 0 0 0 0

Gráficas

Temp. máximas Temp. mínimas Temp. medias Precipitaciones Rachas de viento máximas Velocidades máximas media en intervalos de 10 minutos

Datos horarios

Fecha y hora oficial Temperatura (ºC) Velocidad del viento (km/h) Dirección del viento Racha (km/h) Dirección de racha Precipitación (mm) Presión (hPa) Tendencia (hPa) Humedad (%)
2017-08-17 23:00:00 21.6 0 Calma 8 Sur 0 -- -- 83
2017-08-17 22:00:00 22 0 Calma 5 Norte 0 -- -- 89
2017-08-17 21:00:00 22.9 2 Norte 5 Nordeste 0 -- -- 85
2017-08-17 20:00:00 23.9 3 Este 9 Noroeste 0 -- -- 83
2017-08-17 19:00:00 24.5 4 Nordeste 9 Este 0 -- -- 82
2017-08-17 18:00:00 24.9 6 Este 13 Sudeste 0 -- -- 80
2017-08-17 17:00:00 25.3 6 Este 12 Este 0 -- -- 78
2017-08-17 16:00:00 25.3 7 Este 14 Sudeste 0 -- -- 78
2017-08-17 15:00:00 25 9 Sudeste 13 Sudeste 0 -- -- 78
2017-08-17 14:00:00 25.1 7 Este 13 Sur 0 -- -- 79
2017-08-17 13:00:00 24.8 9 Sudeste 16 Este 0 -- -- 81
2017-08-17 12:00:00 24.7 7 Sudeste 17 Sudeste 0 -- -- 80
2017-08-17 11:00:00 24.7 8 Sudeste 18 Sudeste 0 -- -- 78
2017-08-17 10:00:00 24.6 10 Sudeste 17 Sudeste 0 -- -- 74
2017-08-17 09:00:00 23.7 6 Sur 13 Sur 0 -- -- 74
2017-08-17 08:00:00 21.6 5 Sur 10 Sur 0 -- -- 87
2017-08-17 07:00:00 21.4 6 Sur 11 Sur 0 -- -- 89
2017-08-17 06:00:00 21.1 4 Sur 9 Sur 0 -- -- 90
2017-08-17 05:00:00 20.9 5 Sur 6 Sur 0 -- -- 91
2017-08-17 04:00:00 21.7 2 Sudoeste 6 Sudoeste 0 -- -- 88
2017-08-17 03:00:00 21.8 2 Sudeste 9 Nordeste 0 -- -- 88
2017-08-17 02:00:00 22.5 3 Nordeste 7 Este 0 -- -- 85
2017-08-17 01:00:00 22.5 3 Nordeste 9 Este 0 -- -- 84
2017-08-17 00:00:00 22.7 5 Este 10 Sudeste 0 -- -- 86
2017-08-16 23:00:00 22.8 4 Este 9 Este 0 -- -- 84
2017-08-16 22:00:00 22.8 4 Este 10 Nordeste 0 -- -- 83
2017-08-16 21:00:00 22.8 3 Nordeste 10 Nordeste 0 -- -- 83
2017-08-16 20:00:00 23.1 5 Norte 13 Nordeste 0 -- -- 82
2017-08-16 19:00:00 23.5 6 Nordeste 11 Nordeste 0 -- -- 80
2017-08-16 18:00:00 24 8 Nordeste 14 Nordeste 0 -- -- 76
2017-08-16 17:00:00 24.4 6 Este 17 Nordeste 0 -- -- 75
2017-08-16 16:00:00 24.4 7 Este 14 Nordeste 0 -- -- 75
2017-08-16 15:00:00 24.8 9 Nordeste 16 Nordeste 0 -- -- 73
2017-08-16 14:00:00 24.5 6 Nordeste 15 Nordeste 0 -- -- 74
2017-08-16 13:00:00 24.8 8 Nordeste 16 Nordeste 0 -- -- 74
2017-08-16 12:00:00 24.8 8 Este 17 Este 0 -- -- 73
2017-08-16 11:00:00 24.2 8 Este 15 Sudeste 0 -- -- 75
2017-08-16 10:00:00 23.4 7 Sudeste 16 Sudeste 0 -- -- 77
2017-08-16 09:00:00 22.4 8 Sudeste 17 Sudeste 0 -- -- 77
2017-08-16 08:00:00 22.3 8 Sudeste 17 Este 0 -- -- 83
2017-08-16 07:00:00 22.4 9 Sudeste 19 Sudeste 0 -- -- 82
2017-08-16 06:00:00 22.4 9 Sudeste 15 Sudeste 0 -- -- 81
2017-08-16 05:00:00 22.3 7 Sur 14 Sudeste 0 -- -- 81
2017-08-16 04:00:00 22.1 8 Sudeste 14 Sudeste 0 -- -- 82
2017-08-16 03:00:00 22 8 Sudeste 13 Sudeste 0 -- -- 83
2017-08-16 02:00:00 22 6 Este 15 Sudeste 0 -- -- 84
2017-08-16 01:00:00 22.2 5 Sudeste 18 Sudeste 0 -- -- 83
2017-08-16 00:00:00 22.4 7 Sudeste 17 Sudeste 0 -- -- 83
2017-08-15 23:00:00 22.4 4 Sudeste 14 Sudeste 0 -- -- 81
2017-08-15 22:00:00 22.5 6 Este 12 Este 0 -- -- 80
2017-08-15 21:00:00 22.7 6 Este 14 Sudeste 0 -- -- 78
2017-08-15 20:00:00 23 8 Este 14 Este 0 -- -- 79
2017-08-15 19:00:00 23.4 8 Este 15 Este 0 -- -- 77
2017-08-15 18:00:00 24.6 9 Este 17 Este 0 -- -- 73
2017-08-15 17:00:00 24.5 10 Este 16 Este 0 -- -- 73
2017-08-15 16:00:00 25.1 8 Este 16 Sudeste 0 -- -- 72
2017-08-15 15:00:00 24.8 9 Este 15 Nordeste 0 -- -- 71
2017-08-15 14:00:00 24.4 10 Nordeste 17 Nordeste 0 -- -- 73
2017-08-15 13:00:00 24.9 9 Este 15 Este 0 -- -- 70
2017-08-15 12:00:00 24.3 8 Este 13 Este 0 -- -- 71
2017-08-15 11:00:00 24.1 7 Este 14 Este 0 -- -- 71
2017-08-15 10:00:00 23.4 6 Este 10 Sudeste 0 -- -- 72
2017-08-15 09:00:00 21.9 2 Sur 6 Nordeste 0 -- -- 78
2017-08-15 08:00:00 20.7 0 Calma 5 Sur 0 -- -- 82
2017-08-15 07:00:00 20.7 0 Calma 8 Nordeste 0 -- -- 82
2017-08-15 06:00:00 21.4 3 Norte 8 Este 0 -- -- 80
2017-08-15 05:00:00 21.2 3 Noroeste 10 Nordeste 0 -- -- 81
2017-08-15 04:00:00 21.2 2 Nordeste 9 Noroeste 0 -- -- 83
2017-08-15 03:00:00 21.3 5 Oeste 8 Noroeste 0 -- -- 86
2017-08-15 02:00:00 21 4 Oeste 8 Oeste 0 -- -- 85
2017-08-15 01:00:00 21 5 Noroeste 8 Noroeste 0 -- -- 86
2017-08-15 00:00:00 21.4 5 Norte 9 Norte 0 -- -- 86
2017-08-14 23:00:00 21.3 3 Norte 5 Noroeste 0 -- -- 85
2017-08-14 22:00:00 21.8 2 Nordeste 9 Norte 0 -- -- 83
2017-08-14 21:00:00 22.1 5 Norte 13 Nordeste 0 -- -- 80
2017-08-14 20:00:00 22.7 5 Nordeste 15 Nordeste 0 -- -- 80
2017-08-14 19:00:00 23.4 5 Norte 15 Norte 0 -- -- 77
2017-08-14 18:00:00 23.9 7 Nordeste 17 Nordeste 0 -- -- 74
2017-08-14 17:00:00 24.7 9 Nordeste 18 Nordeste 0 -- -- 71
2017-08-14 16:00:00 24.9 10 Nordeste 21 Norte 0 -- -- 72
2017-08-14 15:00:00 25.1 8 Nordeste 17 Nordeste 0 -- -- 71
2017-08-14 14:00:00 24.7 10 Norte 20 Norte 0 -- -- 72
2017-08-14 13:00:00 24.7 9 Norte 19 Nordeste 0 -- -- 72
2017-08-14 12:00:00 24.3 9 Norte 19 Norte 0 -- -- 72
2017-08-14 11:00:00 23.8 8 Norte 18 Nordeste 0 -- -- 73
2017-08-14 10:00:00 23.1 7 Nordeste 14 Nordeste 0 -- -- 75
2017-08-14 09:00:00 22.2 5 Noroeste 10 Noroeste 0 -- -- 77
2017-08-14 08:00:00 21.1 4 Noroeste 10 Noroeste 0 -- -- 81
2017-08-14 07:00:00 20.9 6 Norte 10 Noroeste 0 -- -- 82
2017-08-14 06:00:00 20.7 6 Noroeste 10 Noroeste 0 -- -- 83
2017-08-14 05:00:00 20.6 6 Noroeste 11 Noroeste 0 -- -- 84
2017-08-14 04:00:00 20.8 6 Noroeste 10 Noroeste 0 -- -- 85
2017-08-14 03:00:00 20.5 6 Noroeste 12 Norte 0 -- -- 86
2017-08-14 02:00:00 21.2 7 Norte 14 Norte 0 -- -- 84
2017-08-14 01:00:00 21.1 6 Norte 14 Norte 0 -- -- 86
2017-08-14 00:00:00 21.4 9 Norte 15 Norte 0 -- -- 86
2017-08-13 23:00:00 21.6 10 Norte 19 Norte 0 -- -- 86
2017-08-13 22:00:00 21.8 10 Norte 17 Norte 0 -- -- 86
2017-08-13 21:00:00 22.1 11 Norte 19 Norte 0 -- -- 84
2017-08-13 20:00:00 23.1 11 Norte 19 Norte 0 -- -- 81
2017-08-13 19:00:00 23.5 10 Norte 19 Norte 0 -- -- 79
2017-08-13 18:00:00 24.7 8 Norte 21 Norte 0 -- -- 77
2017-08-13 17:00:00 24.8 11 Norte 19 Norte 0 -- -- 77
2017-08-13 16:00:00 24.8 11 Norte 21 Nordeste 0 -- -- 76
2017-08-13 15:00:00 25 9 Norte 18 Norte 0 -- -- 76
2017-08-13 14:00:00 24.7 10 Norte 18 Nordeste 0 -- -- 75
2017-08-13 13:00:00 24.2 11 Norte 18 Nordeste 0 -- -- 77
2017-08-13 12:00:00 24 10 Norte 19 Norte 0 -- -- 77
2017-08-13 11:00:00 23.6 10 Norte 18 Norte 0 -- -- 78
2017-08-13 10:00:00 22.8 10 Norte 19 Norte 0 -- -- 81
2017-08-13 09:00:00 21.7 7 Norte 13 Noroeste 0 -- -- 85
2017-08-13 08:00:00 19.7 8 Noroeste 12 Oeste 0 -- -- 89
2017-08-13 07:00:00 19.4 5 Noroeste 10 Noroeste 0 -- -- 91
2017-08-13 06:00:00 19.1 5 Noroeste 8 Noroeste 0 -- -- 90
2017-08-13 05:00:00 20 6 Oeste 10 Noroeste 0 -- -- 91
2017-08-13 04:00:00 20.2 7 Noroeste 11 Noroeste 0 -- -- 91
2017-08-13 03:00:00 20.4 7 Noroeste 10 Noroeste 0 -- -- 91
2017-08-13 02:00:00 20.5 5 Noroeste 9 Noroeste 0 -- -- 89
2017-08-13 01:00:00 21 6 Noroeste 11 Noroeste 0 -- -- 88
2017-08-13 00:00:00 21.3 6 Noroeste 10 Noroeste 0 -- -- 88
2017-08-12 23:00:00 21.6 6 Noroeste 11 Norte 0 -- -- 88
2017-08-12 22:00:00 22.2 7 Norte 13 Noroeste 0 -- -- 87
2017-08-12 21:00:00 22.3 6 Norte 12 Norte 0 -- -- 85
2017-08-12 20:00:00 23.5 5 Nordeste 12 Nordeste 0 -- -- 82
2017-08-12 19:00:00 24 7 Nordeste 13 Nordeste 0 -- -- 81
2017-08-12 18:00:00 24.6 7 Nordeste 14 Este 0 -- -- 75
2017-08-12 17:00:00 24.7 8 Nordeste 14 Nordeste 0 -- -- 74
2017-08-12 16:00:00 24.6 6 Este 13 Este 0 -- -- 73
2017-08-12 15:00:00 24.6 5 Este 13 Sudeste 0 -- -- 75
2017-08-12 14:00:00 24.6 5 Nordeste 12 Sudeste 0 -- -- 73
2017-08-12 13:00:00 24.3 5 Este 14 Sudeste 0 -- -- 74
2017-08-12 12:00:00 23.5 9 Sur 13 Sudeste 0 -- -- 78
2017-08-12 11:00:00 22.9 2 Este 8 Este 0 -- -- 80
2017-08-12 10:00:00 22.5 6 Nordeste 12 Nordeste 0 -- -- 81
2017-08-12 09:00:00 21.6 3 Este 9 Nordeste 0 -- -- 84
2017-08-12 08:00:00 20.8 3 Nordeste 8 Nordeste 0 -- -- 87
2017-08-12 07:00:00 20.6 3 Sur 6 Este 0 -- -- 88
2017-08-12 06:00:00 20.5 3 Sur 6 Sur 0 -- -- 88
2017-08-12 05:00:00 20 3 Sur 5 Sur 0 -- -- 90
2017-08-12 04:00:00 20.1 0 Calma 5 Este 0 -- -- 89
2017-08-12 03:00:00 20.9 3 Sudeste 5 Sudeste 0 -- -- 86
2017-08-12 02:00:00 21.6 3 Sudeste 8 Sudeste 0 -- -- 85
2017-08-12 01:00:00 21.9 5 Sudeste 10 Sudeste 0 -- -- 86
2017-08-12 00:00:00 21.8 3 Este 6 Sudeste 0 -- -- 87
2017-08-11 23:00:00 21.8 0 Calma 7 Sudeste 0 -- -- 86
2017-08-11 22:00:00 22.1 3 Este 10 Nordeste 0 -- -- 86
2017-08-11 21:00:00 22.2 4 Nordeste 9 Nordeste 0 -- -- 85
2017-08-11 20:00:00 23 4 Nordeste 11 Nordeste 0 -- -- 82
2017-08-11 19:00:00 23.5 6 Este 12 Este 0 -- -- 80
2017-08-11 18:00:00 24.1 6 Este 14 Este 0 -- -- 78
2017-08-11 17:00:00 24.6 7 Este 15 Nordeste 0 -- -- 78
2017-08-11 16:00:00 24.4 9 Este 15 Sudeste 0 -- -- 77
2017-08-11 15:00:00 24.5 8 Este 15 Este 0 -- -- 76
2017-08-11 14:00:00 24.9 7 Este 14 Sudeste 0 -- -- 76
2017-08-11 13:00:00 24.6 8 Este 19 Sur 0 -- -- 72
2017-08-11 12:00:00 24.7 9 Sudeste 21 Sur 0 -- -- 68
2017-08-11 11:00:00 24.2 5 Este 20 Este 0 -- -- 70
2017-08-11 10:00:00 23.3 8 Sur 14 Sur 0 -- -- 76
2017-08-11 09:00:00 22.1 3 Sudoeste 6 Sur 0 -- -- 81
2017-08-11 08:00:00 21.1 3 Sudeste 9 Este 0 -- -- 85
2017-08-11 07:00:00 21.2 5 Nordeste 13 Nordeste 0 -- -- 85
2017-08-11 06:00:00 21.2 4 Nordeste 14 Nordeste 0 -- -- 85
2017-08-11 05:00:00 21.1 4 Nordeste 14 Nordeste 0 -- -- 85
2017-08-11 04:00:00 21.2 4 Norte 10 Nordeste 0 -- -- 85
2017-08-11 03:00:00 21.2 4 Nordeste 13 Este 0 -- -- 85
2017-08-11 02:00:00 21.3 5 Este 11 Nordeste 0 -- -- 85
2017-08-11 01:00:00 21.4 4 Nordeste 12 Nordeste 0 -- -- 83
2017-08-11 00:00:00 21.5 4 Nordeste 10 Nordeste 0 -- -- 85
2017-08-10 23:00:00 21.4 4 Nordeste 9 Nordeste 0 -- -- 85
2017-08-10 22:00:00 21.6 3 Nordeste 12 Nordeste 0 -- -- 84
2017-08-10 21:00:00 21.9 4 Nordeste 9 Nordeste 0 -- -- 83
2017-08-10 20:00:00 22.8 5 Nordeste 10 Nordeste 0 -- -- 81
2017-08-10 19:00:00 23.7 6 Nordeste 14 Este 0 -- -- 79
2017-08-10 18:00:00 23.8 8 Este 14 Este 0 -- -- 78
2017-08-10 17:00:00 24.2 8 Este 15 Este 0 -- -- 77
2017-08-10 16:00:00 24.6 9 Este 15 Este 0 -- -- 75
2017-08-10 15:00:00 24.5 7 Este 14 Este 0 -- -- 75
2017-08-10 14:00:00 23.9 8 Este 15 Sudeste 0 -- -- 75
2017-08-10 13:00:00 23.8 11 Este 17 Este 0 -- -- 77
2017-08-10 12:00:00 23.8 9 Sudeste 14 Sudeste 0 -- -- 77
2017-08-10 11:00:00 23.4 9 Sudeste 13 Sudeste 0 -- -- 79
2017-08-10 10:00:00 22.7 5 Este 10 Este 0 -- -- 81
2017-08-10 09:00:00 22.3 4 Este 9 Este 0 -- -- 85
2017-08-10 08:00:00 21.2 3 Sur 7 Sudeste 0 -- -- 87
2017-08-10 07:00:00 21.1 0 Calma 6 Sudeste 0 -- -- 88
2017-08-10 06:00:00 21.2 2 Sudeste 6 Este 0 -- -- 89
2017-08-10 05:00:00 21 2 Sur 9 Sur 0 -- -- 86
2017-08-10 04:00:00 21.5 3 Sur 13 Sudeste 0 -- -- 84
2017-08-10 03:00:00 21.8 4 Sudeste 12 Sur 0 -- -- 84
2017-08-10 02:00:00 21.8 4 Sudeste 10 Sur 0 -- -- 84
2017-08-10 01:00:00 21.8 3 Sur 8 Sudeste 0 -- -- 84
2017-08-10 00:00:00 22.2 0 Calma 9 Noroeste 0 -- -- 82
2017-08-09 23:00:00 22.4 3 Oeste 11 Oeste 0 -- -- 83
2017-08-09 22:00:00 22.6 3 Sudoeste 10 Sur 0 -- -- 81
2017-08-09 21:00:00 22.9 3 Norte 10 Este 0 -- -- 80
2017-08-09 20:00:00 23.8 2 Sur 14 Sudeste 0 -- -- 78
2017-08-09 19:00:00 24.5 5 Sudeste 10 Sudeste 0 -- -- 77
2017-08-09 18:00:00 25.1 6 Este 13 Este 0 -- -- 77
2017-08-09 17:00:00 25.2 6 Sudeste 12 Sudeste 0 -- -- 75
2017-08-09 16:00:00 25.3 6 Sudeste 13 Este 0 -- -- 76
2017-08-09 15:00:00 25.4 6 Sudeste 14 Sudeste 0 -- -- 76
2017-08-09 14:00:00 25.6 7 Sudeste 14 Nordeste 0 -- -- 75
2017-08-09 13:00:00 25.3 6 Este 14 Este 0 -- -- 75
2017-08-09 12:00:00 25.2 7 Sudeste 15 Nordeste 0 -- -- 75
2017-08-09 11:00:00 24.7 4 Nordeste 14 Nordeste 0 -- -- 75
2017-08-09 10:00:00 23.9 6 Sur 13 Este 0 -- -- 78
2017-08-09 09:00:00 22.7 2 Noroeste 9 Oeste 0 -- -- 86
2017-08-09 08:00:00 21.5 3 Oeste 5 Oeste 0 -- -- 91
2017-08-09 07:00:00 21.4 2 Oeste 6 Sur 0 -- -- 89
2017-08-09 06:00:00 21.5 3 Sur 9 Sur 0 -- -- 88
2017-08-09 05:00:00 21.9 5 Sur 9 Sudoeste 0 -- -- 88
2017-08-09 04:00:00 22.2 4 Sudeste 6 Sudeste 0 -- -- 88
2017-08-09 03:00:00 22.3 2 Oeste 9 Norte 0 -- -- 88
2017-08-09 02:00:00 22.5 2 Nordeste 10 Noroeste 0 -- -- 88
2017-08-09 01:00:00 22.7 3 Norte 9 Norte 0 -- -- 88
2017-08-09 00:00:00 22.8 3 Norte 13 Noroeste 0 -- -- 88
2017-08-08 23:00:00 22.9 6 Norte 12 Norte 0 -- -- 88
2017-08-08 22:00:00 23 5 Norte 15 Noroeste 0 -- -- 88
2017-08-08 21:00:00 23.2 8 Norte 13 Norte 0 -- -- 88
2017-08-08 20:00:00 23.8 6 Norte 13 Norte 0 -- -- 86
2017-08-08 19:00:00 24.5 6 Norte 13 Norte 0 -- -- 83
2017-08-08 18:00:00 25.2 6 Nordeste 14 Nordeste 0 -- -- 81
2017-08-08 17:00:00 25.1 6 Nordeste 14 Este 0 -- -- 81
2017-08-08 16:00:00 25.3 6 Nordeste 13 Este 0 -- -- 80
2017-08-08 15:00:00 25.5 7 Este 13 Nordeste 0 -- -- 78
2017-08-08 14:00:00 25.2 6 Este 13 Sudeste 0 -- -- 80
2017-08-08 13:00:00 25.4 5 Este 12 Sudeste 0 -- -- 79
2017-08-08 12:00:00 24.7 5 Este 12 Sur 0 -- -- 83
2017-08-08 11:00:00 24.3 6 Sudeste 13 Sudeste 0 -- -- 83
2017-08-08 10:00:00 23.9 3 Sur 9 Este 0 -- -- 87
2017-08-08 09:00:00 22.9 3 Noroeste 9 Noroeste 0 -- -- 90
2017-08-08 08:00:00 22.5 4 Norte 9 Norte 0 -- -- 93
2017-08-08 07:00:00 22.5 4 Norte 10 Norte 0 -- -- 94
2017-08-08 06:00:00 22.6 5 Norte 11 Norte 0 -- -- 93
2017-08-08 05:00:00 22.6 5 Norte 11 Norte 0 -- -- 93
2017-08-08 04:00:00 22.7 3 Norte 8 Norte 0 -- -- 92
2017-08-08 03:00:00 22.7 3 Norte 11 Norte 0 -- -- 92
2017-08-08 02:00:00 22.8 6 Norte 17 Norte 0 -- -- 92
2017-08-08 01:00:00 22.9 13 Norte 20 Norte 0 -- -- 92
2017-08-08 00:00:00 23 11 Norte 21 Norte 0 -- -- 92
2017-08-07 23:00:00 23.1 13 Norte 26 Noroeste 0 -- -- 92
2017-08-07 22:00:00 23.2 12 Norte 26 Norte 0 -- -- 92
2017-08-07 21:00:00 23.3 14 Norte 22 Norte 0 -- -- 91
2017-08-07 20:00:00 23.5 14 Norte 25 Norte 0 -- -- 90
2017-08-07 19:00:00 23.9 13 Norte 22 Norte 0 -- -- 87
2017-08-07 18:00:00 24.4 12 Norte 21 Norte 0 -- -- 85
2017-08-07 17:00:00 25.5 10 Norte 22 Norte 0 -- -- 82
2017-08-07 16:00:00 25.4 12 Norte 21 Norte 0 -- -- 82
2017-08-07 15:00:00 25.8 12 Norte 18 Norte 0 -- -- 79
2017-08-07 14:00:00 25.9 8 Norte 17 Noroeste 0 -- -- 79
2017-08-07 13:00:00 24.9 8 Nordeste 13 Norte 0 -- -- 82
2017-08-07 12:00:00 23.6 8 Norte 18 Norte 0 -- -- 89
2017-08-07 11:00:00 23.3 10 Norte 22 Norte 0 -- -- 89
2017-08-07 10:00:00 22.9 11 Norte 21 Norte 0 -- -- 91
2017-08-07 09:00:00 22.6 12 Norte 19 Norte 0 -- -- 92
2017-08-07 08:00:00 22.4 11 Norte 21 Noroeste 0 -- -- 92
2017-08-07 07:00:00 22.4 13 Norte 21 Norte 0 -- -- 92
2017-08-07 06:00:00 22.3 10 Norte 18 Norte 0 -- -- 92
2017-08-07 05:00:00 22.3 9 Norte 15 Noroeste 0 -- -- 92
2017-08-07 04:00:00 22.4 5 Norte 12 Norte 0 -- -- 92
2017-08-07 03:00:00 22.5 6 Norte 22 Noroeste 0 -- -- 89
2017-08-07 02:00:00 22.5 3 Noroeste 10 Noroeste 0 -- -- 90
2017-08-07 01:00:00 22.6 5 Norte 16 Noroeste 0 -- -- 90
2017-08-07 00:00:00 22.7 9 Norte 19 Norte 0 -- -- 90
2017-08-06 23:00:00 22.7 10 Norte 21 Norte 0 -- -- 89
2017-08-06 22:00:00 22.7 11 Norte 22 Norte 0 -- -- 88
2017-08-06 21:00:00 22.8 13 Norte 23 Norte 0 -- -- 87
2017-08-06 20:00:00 23.1 12 Norte 23 Norte 0 -- -- 86
2017-08-06 19:00:00 23.5 10 Norte 18 Noroeste 0 -- -- 85
2017-08-06 18:00:00 23.9 10 Norte 20 Norte 0 -- -- 86
2017-08-06 17:00:00 24.5 12 Norte 22 Norte 0 -- -- 83
2017-08-06 16:00:00 25 15 Norte 23 Noroeste 0 -- -- 81
2017-08-06 15:00:00 25.2 12 Norte 22 Norte 0 -- -- 78
2017-08-06 14:00:00 24.9 10 Norte 17 Norte 0 -- -- 80
2017-08-06 13:00:00 23.8 4 Nordeste 13 Norte 0 -- -- 81
2017-08-06 12:00:00 23.9 5 Norte 15 Norte 0 -- -- 80
2017-08-06 11:00:00 23.5 10 Norte 17 Norte 0 -- -- 84
2017-08-06 10:00:00 23 8 Norte 15 Norte 0 -- -- 83
2017-08-06 09:00:00 22.4 8 Norte 15 Norte 0 -- -- 83
2017-08-06 08:00:00 22 8 Norte 18 Norte 0 -- -- 83
2017-08-06 07:00:00 21.9 5 Norte 12 Norte 0 -- -- 85
2017-08-06 06:00:00 22 7 Norte 17 Norte 0 -- -- 88
2017-08-06 05:00:00 22 5 Norte 15 Norte 0 -- -- 87
2017-08-06 04:00:00 22.2 6 Norte 13 Norte 0 -- -- 87
2017-08-06 03:00:00 22.1 5 Nordeste 14 Nordeste 0 -- -- 87
2017-08-06 02:00:00 22.5 6 Nordeste 12 Norte 0 -- -- 87
2017-08-06 01:00:00 22.6 6 Norte 14 Nordeste 0 -- -- 84
2017-08-06 00:00:00 22.5 7 Norte 15 Nordeste 0 -- -- 88
2017-08-05 23:00:00 22.8 8 Norte 18 Norte 0 -- -- 88
2017-08-05 22:00:00 22.8 8 Norte 16 Norte 0 -- -- 84
2017-08-05 21:00:00 23.1 12 Norte 23 Norte 0 -- -- 85
2017-08-05 20:00:00 23.4 10 Norte 21 Norte 0 -- -- 81
2017-08-05 19:00:00 24.2 11 Norte 22 Norte 0 -- -- 81
2017-08-05 18:00:00 24.2 8 Norte 21 Norte 0 -- -- 83
2017-08-05 17:00:00 24.6 12 Norte 20 Norte 0 -- -- 79
2017-08-05 16:00:00 25.4 10 Norte 20 Norte 0 -- -- 75
2017-08-05 15:00:00 25.9 10 Norte 18 Norte 0 -- -- 70
2017-08-05 14:00:00 25.4 9 Nordeste 21 Norte 0 -- -- 70
2017-08-05 13:00:00 25 8 Nordeste 19 Nordeste 0 -- -- 71
2017-08-05 12:00:00 24.9 10 Nordeste 19 Nordeste 0 -- -- 70
2017-08-05 11:00:00 25 7 Nordeste 17 Nordeste 0 -- -- 70
2017-08-05 10:00:00 23.8 7 Norte 14 Norte 0 -- -- 73
2017-08-05 09:00:00 22.8 4 Norte 12 Norte 0 -- -- 78
2017-08-05 08:00:00 22.5 6 Norte 15 Norte 0 -- -- 78
2017-08-05 07:00:00 22.5 6 Norte 15 Norte 0 -- -- 79
2017-08-05 06:00:00 22.3 8 Norte 14 Norte 0 -- -- 82
2017-08-05 05:00:00 22.5 7 Norte 18 Norte 0 -- -- 79
2017-08-05 04:00:00 22.5 10 Norte 22 Norte 0 -- -- 79
2017-08-05 03:00:00 22.4 8 Norte 14 Noroeste 0 -- -- 76
2017-08-05 02:00:00 22.2 8 Norte 17 Noroeste 0 -- -- 87
2017-08-05 01:00:00 22.4 9 Norte 15 Norte 0 -- -- 88
2017-08-05 00:00:00 22.4 8 Noroeste 16 Norte 0 -- -- 87
2017-08-04 23:00:00 22.6 9 Norte 15 Norte 0 -- -- 85
2017-08-04 22:00:00 22.6 9 Norte 17 Noroeste 0 -- -- 83
2017-08-04 21:00:00 22.6 10 Noroeste 15 Noroeste 0 -- -- 81
2017-08-04 20:00:00 23.4 8 Norte 17 Norte 0 -- -- 78
2017-08-04 19:00:00 24.1 10 Norte 18 Norte 0 -- -- 76
2017-08-04 18:00:00 24.7 9 Nordeste 20 Norte 0 -- -- 72
2017-08-04 17:00:00 25.3 9 Norte 19 Nordeste 0 -- -- 71
2017-08-04 16:00:00 25.4 9 Nordeste 18 Nordeste 0 -- -- 73
2017-08-04 15:00:00 25 10 Norte 19 Norte 0 -- -- 74
2017-08-04 14:00:00 25 9 Nordeste 17 Nordeste 0 -- -- 71
2017-08-04 13:00:00 24.9 8 Nordeste 16 Nordeste 0 -- -- 71
2017-08-04 12:00:00 24 8 Nordeste 15 Norte 0 -- -- 74
2017-08-04 11:00:00 23.7 8 Nordeste 16 Norte 0 -- -- 76
2017-08-04 10:00:00 22.5 9 Norte 15 Norte 0 -- -- 81
2017-08-04 09:00:00 22.3 8 Norte 17 Norte 0 -- -- 82
2017-08-04 08:00:00 21.4 8 Norte 14 Norte 0 -- -- 86
2017-08-04 07:00:00 21.2 9 Norte 16 Norte 0 -- -- 87
2017-08-04 06:00:00 20.5 8 Noroeste 13 Norte 0 -- -- 87
2017-08-04 05:00:00 21.2 5 Norte 18 Nordeste 0 -- -- 84
2017-08-04 04:00:00 21.6 9 Nordeste 18 Nordeste 0 -- -- 85
2017-08-04 03:00:00 21.6 4 Norte 11 Norte 0 -- -- 86
2017-08-04 02:00:00 21.4 5 Norte 12 Norte 0 -- -- 87
2017-08-04 01:00:00 21.2 5 Noroeste 12 Nordeste 0 -- -- 85
2017-08-04 00:00:00 21.8 4 Nordeste 9 Este 0 -- -- 85
2017-08-03 23:00:00 21.8 4 Norte 18 Nordeste 0 -- -- 83
2017-08-03 22:00:00 22.1 6 Nordeste 13 Nordeste 0 -- -- 83
2017-08-03 21:00:00 22.2 5 Norte 14 Nordeste 0 -- -- 80
2017-08-03 20:00:00 22.9 5 Nordeste 12 Nordeste 0 -- -- 77
2017-08-03 19:00:00 23.9 8 Nordeste 15 Nordeste 0 -- -- 71
2017-08-03 18:00:00 23.7 6 Nordeste 18 Nordeste 0 -- -- 71
2017-08-03 17:00:00 24.1 12 Nordeste 18 Nordeste 0 -- -- 71
2017-08-03 16:00:00 24.3 9 Nordeste 17 Nordeste 0 -- -- 69
2017-08-03 15:00:00 24.3 10 Nordeste 18 Este 0 -- -- 69
2017-08-03 14:00:00 24.5 12 Nordeste 20 Nordeste 0 -- -- 68
2017-08-03 13:00:00 23.6 8 Nordeste 19 Nordeste 0 -- -- 71
2017-08-03 12:00:00 23.8 10 Nordeste 17 Nordeste 0 -- -- 69
2017-08-03 11:00:00 23.5 13 Nordeste 20 Nordeste 0 -- -- 69
2017-08-03 10:00:00 22.7 9 Nordeste 26 Este 0 -- -- 70
2017-08-03 09:00:00 21.5 10 Nordeste 19 Nordeste 0 -- -- 75
2017-08-03 08:00:00 21.4 9 Nordeste 23 Norte 0 -- -- 73
2017-08-03 07:00:00 20.8 6 Norte 17 Nordeste 0 -- -- 81
2017-08-03 06:00:00 21.1 10 Nordeste 19 Nordeste 0 -- -- 78
2017-08-03 05:00:00 21.1 6 Nordeste 16 Nordeste 0 -- -- 84
2017-08-03 04:00:00 21.5 6 Nordeste 13 Nordeste 0 -- -- 82
2017-08-03 03:00:00 21.4 4 Nordeste 14 Nordeste 0 -- -- 84
2017-08-03 02:00:00 21.5 5 Nordeste 11 Norte 0 -- -- 85
2017-08-03 01:00:00 21.6 3 Nordeste 8 Nordeste 0 -- -- 84
2017-08-03 00:00:00 21.7 4 Este 15 Nordeste 0 -- -- 83
2017-08-02 23:00:00 21.8 8 Este 16 Nordeste 0 -- -- 83
2017-08-02 22:00:00 21.9 4 Nordeste 12 Nordeste 0 -- -- 82
2017-08-02 21:00:00 22.3 3 Nordeste 10 Este 0 -- -- 81
2017-08-02 20:00:00 23.4 6 Este 14 Este 0 -- -- 76
2017-08-02 19:00:00 23.4 8 Este 13 Nordeste 0 -- -- 77
2017-08-02 18:00:00 24.1 10 Este 17 Este 0 -- -- 72
2017-08-02 17:00:00 25 9 Este 16 Nordeste 0 -- -- 69
2017-08-02 16:00:00 25.2 9 Este 16 Este 0 -- -- 70
2017-08-02 15:00:00 25.1 9 Este 17 Nordeste 0 -- -- 69
2017-08-02 14:00:00 25.3 8 Este 17 Este 0 -- -- 70
2017-08-02 13:00:00 24.6 9 Este 17 Este 0 -- -- 71
2017-08-02 12:00:00 24.5 8 Este 16 Este 0 -- -- 73
2017-08-02 11:00:00 23.7 7 Este 14 Este 0 -- -- 76
2017-08-02 10:00:00 23.7 8 Este 14 Este 0 -- -- 73
2017-08-02 09:00:00 22.6 5 Nordeste 11 Nordeste 0 -- -- 80
2017-08-02 08:00:00 21.1 2 Norte 11 Este 0 -- -- 84
2017-08-02 07:00:00 20.6 6 Nordeste 11 Nordeste 0 -- -- 85
2017-08-02 06:00:00 20.6 0 Calma 13 Nordeste 0 -- -- 85
2017-08-02 05:00:00 21 6 Este 13 Este 0 -- -- 86
2017-08-02 04:00:00 21.4 6 Este 14 Nordeste 0 -- -- 87
2017-08-02 03:00:00 21.6 6 Norte 13 Norte 0 -- -- 86
2017-08-02 02:00:00 21.7 5 Norte 10 Nordeste 0 -- -- 86
2017-08-02 01:00:00 21.6 4 Norte 8 Norte 0 -- -- 85
2017-08-02 00:00:00 21.9 0 Calma 5 Noroeste 0 -- -- 84
2017-08-01 23:00:00 22 4 Norte 9 Norte 0 -- -- 82
2017-08-01 22:00:00 22.1 0 Calma 12 Norte 0 -- -- 75
2017-08-01 21:00:00 22.6 3 Oeste 14 Este 0 -- -- 71
2017-08-01 20:00:00 23.8 3 Norte 12 Noroeste 0 -- -- 67
2017-08-01 19:00:00 24.5 6 Norte 14 Nordeste 0 -- -- 70
2017-08-01 18:00:00 24.4 5 Nordeste 17 Nordeste 0 -- -- 73
2017-08-01 17:00:00 24.4 8 Nordeste 15 Nordeste 0 -- -- 73
2017-08-01 16:00:00 24.6 8 Nordeste 14 Nordeste 0 -- -- 72
2017-08-01 15:00:00 24.9 8 Nordeste 18 Norte 0 -- -- 69
2017-08-01 14:00:00 24.6 7 Nordeste 14 Norte 0 -- -- 71
2017-08-01 13:00:00 24 5 Nordeste 15 Norte 0 -- -- 73
2017-08-01 12:00:00 24.4 5 Nordeste 13 Nordeste 0 -- -- 75
2017-08-01 11:00:00 23.4 5 Norte 15 Nordeste 0 -- -- 77
2017-08-01 10:00:00 22.8 7 Norte 13 Norte 0 -- -- 79
2017-08-01 09:00:00 22.4 7 Nordeste 12 Nordeste 0 -- -- 81
2017-08-01 08:00:00 21.2 5 Norte 15 Norte 0 -- -- 86
2017-08-01 07:00:00 21 7 Norte 17 Norte 0 -- -- 87
2017-08-01 06:00:00 21.1 6 Norte 17 Norte 0 -- -- 86
2017-08-01 05:00:00 21.1 6 Norte 13 Norte 0 -- -- 86
2017-08-01 04:00:00 21.1 6 Norte 12 Norte 0 -- -- 86
2017-08-01 03:00:00 21.1 6 Norte 13 Norte 0 -- -- 87
2017-08-01 02:00:00 21.1 6 Norte 12 Norte 0 -- -- 86
2017-08-01 01:00:00 21.3 6 Norte 13 Norte 0 -- -- 85
2017-08-01 00:00:00 21.5 9 Norte 18 Norte 0 -- -- 84
2017-07-31 23:00:00 21.4 8 Norte 14 Norte 0 -- -- 84
2017-07-31 22:00:00 21.8 5 Norte 15 Nordeste 0 -- -- 82
2017-07-31 21:00:00 22.1 6 Norte 12 Norte 0 -- -- 80
2017-07-31 20:00:00 23.5 5 Norte 13 Norte 0 -- -- 73
2017-07-31 19:00:00 24 8 Nordeste 15 Nordeste 0 -- -- 71
2017-07-31 18:00:00 23.8 7 Nordeste 14 Nordeste 0 -- -- 71
2017-07-31 17:00:00 24.6 7 Nordeste 12 Nordeste 0 -- -- 68
2017-07-31 16:00:00 23.9 5 Nordeste 12 Nordeste 0 -- -- 70
2017-07-31 15:00:00 23.6 5 Nordeste 15 Nordeste 0 -- -- 68
2017-07-31 14:00:00 23.6 8 Nordeste 18 Nordeste 0 -- -- 70
2017-07-31 13:00:00 23.6 8 Nordeste 21 Nordeste 0 -- -- 67
2017-07-31 12:00:00 22.6 10 Nordeste 20 Nordeste 0 -- -- 73
2017-07-31 11:00:00 22.4 7 Nordeste 23 Nordeste 0 -- -- 72
2017-07-31 10:00:00 21.5 8 Nordeste 21 Nordeste 0 -- -- 75
2017-07-31 09:00:00 21.2 10 Nordeste 16 Este 0 -- -- 75
2017-07-31 08:00:00 20.9 5 Norte 18 Nordeste 0 -- -- 75
2017-07-31 07:00:00 21 6 Nordeste 19 Norte 0 -- -- 77
2017-07-31 06:00:00 21 9 Norte 21 Norte 0 -- -- 76
2017-07-31 05:00:00 21.1 6 Norte 20 Nordeste 0 -- -- 77
2017-07-31 04:00:00 21.2 6 Norte 17 Nordeste 0 -- -- 79
2017-07-31 03:00:00 21.2 10 Norte 20 Norte 0 -- -- 77
2017-07-31 02:00:00 21.2 5 Norte 17 Nordeste 0 -- -- 77
2017-07-31 01:00:00 21.2 6 Norte 15 Norte 0 -- -- 79
2017-07-31 00:00:00 21.3 8 Norte 17 Norte 0 -- -- 80
2017-07-30 23:00:00 21.3 6 Norte 15 Norte 0 -- -- 81
2017-07-30 22:00:00 21.3 4 Norte 16 Nordeste 0 -- -- 80
2017-07-30 21:00:00 21.8 4 Nordeste 13 Nordeste 0 -- -- 78
2017-07-30 20:00:00 22.4 6 Nordeste 15 Nordeste 0 -- -- 77
2017-07-30 19:00:00 23 6 Nordeste 14 Este 0 -- -- 77
2017-07-30 18:00:00 23.1 8 Nordeste 13 Nordeste 0 -- -- 77
2017-07-30 17:00:00 23.5 8 Nordeste 17 Nordeste 0 -- -- 75
2017-07-30 16:00:00 23.4 11 Nordeste 17 Este 0 -- -- 76
2017-07-30 15:00:00 23.6 9 Nordeste 17 Nordeste 0 -- -- 75
2017-07-30 14:00:00 23.4 9 Nordeste 18 Este 0 -- -- 77
2017-07-30 13:00:00 23.1 8 Nordeste 15 Nordeste 0 -- -- 78
2017-07-30 12:00:00 22.5 10 Nordeste 17 Nordeste 0 -- -- 79
2017-07-30 11:00:00 21.8 6 Nordeste 15 Nordeste 0 -- -- 83
2017-07-30 10:00:00 21.2 4 Norte 15 Nordeste 0 -- -- 85
2017-07-30 09:00:00 20.9 3 Norte 12 Nordeste 0 -- -- 88
2017-07-30 08:00:00 20.6 3 Norte 10 Nordeste 0 -- -- 89
2017-07-30 07:00:00 20.2 4 Norte 12 Nordeste 0 -- -- 90
2017-07-30 06:00:00 19.9 3 Nordeste 9 Este 0 -- -- 92
2017-07-30 05:00:00 20 2 Noroeste 9 Nordeste 0 -- -- 90
2017-07-30 04:00:00 20.5 3 Nordeste 9 Nordeste 0 -- -- 91
2017-07-30 03:00:00 20.6 3 Noroeste 6 Nordeste 0 -- -- 90
2017-07-30 02:00:00 20.8 3 Norte 5 Nordeste 0 -- -- 90
2017-07-30 01:00:00 21.2 3 Noroeste 8 Nordeste 0 -- -- 89
2017-07-30 00:00:00 21.9 3 Norte 9 Norte 0 -- -- 88
2017-07-29 23:00:00 22.5 4 Norte 10 Norte 0 -- -- 88
2017-07-29 22:00:00 22.4 5 Norte 10 Norte 0 -- -- 88
2017-07-29 21:00:00 22.8 5 Norte 14 Norte 0 -- -- 86
2017-07-29 20:00:00 23.5 9 Norte 17 Norte 0 -- -- 85
2017-07-29 19:00:00 24.1 6 Nordeste 15 Nordeste 0 -- -- 84
2017-07-29 18:00:00 24.6 8 Nordeste 14 Norte 0 -- -- 82
2017-07-29 17:00:00 24.9 7 Nordeste 16 Nordeste 0 -- -- 81
2017-07-29 16:00:00 24.9 8 Norte 14 Nordeste 0 -- -- 81
2017-07-29 15:00:00 24.5 9 Nordeste 16 Este 0 -- -- 81
2017-07-29 14:00:00 24.3 8 Este 13 Este 0 -- -- 80
2017-07-29 13:00:00 24.3 8 Sudeste 13 Nordeste 0 -- -- 82
2017-07-29 12:00:00 24.1 8 Este 12 Nordeste 0 -- -- 83
2017-07-29 11:00:00 23.8 5 Este 10 Nordeste 0 -- -- 83
2017-07-29 10:00:00 23.8 3 Nordeste 8 Este 0 -- -- 83
2017-07-29 09:00:00 23.3 0 Calma 5 Norte 0 -- -- 82
2017-07-29 08:00:00 21 2 Noroeste 8 Sudeste 0 -- -- 81
2017-07-29 07:00:00 20.3 3 Sudeste 7 Este 0 -- -- 75
2017-07-29 06:00:00 20.1 2 Sur 7 Sur 0 -- -- 65
2017-07-29 05:00:00 20.4 4 Sur 8 Sudoeste 0 -- -- 56
2017-07-29 04:00:00 21.6 4 Sur 9 Sur 0 -- -- 61
2017-07-29 03:00:00 21.6 5 Sudeste 9 Sur 0 -- -- 52
2017-07-29 02:00:00 22.3 6 Sudeste 10 Sudeste 0 -- -- 60
2017-07-29 01:00:00 21.9 6 Sudeste 11 Sur 0 -- -- 70
2017-07-29 00:00:00 22.7 8 Sur 10 Sur 0 -- -- 79
2017-07-28 23:00:00 22.5 5 Sur 8 Sur 0 -- -- 79
2017-07-28 22:00:00 23 4 Sur 9 Sur 0 -- -- 80
2017-07-28 21:00:00 23.2 2 Sur 10 Sudeste 0 -- -- 81
2017-07-28 20:00:00 24 4 Sudeste 10 Sudeste 0 -- -- 79
2017-07-28 19:00:00 24.4 6 Sudeste 13 Sudeste 0 -- -- 79
2017-07-28 18:00:00 25.4 8 Este 13 Sudeste 0 -- -- 76
2017-07-28 17:00:00 26.5 8 Sudeste 15 Este 0 -- -- 70
2017-07-28 16:00:00 25.7 10 Este 15 Este 0 -- -- 72
2017-07-28 15:00:00 25.4 9 Este 16 Este 0 -- -- 76
2017-07-28 14:00:00 25.6 12 Este 15 Sudeste 0 -- -- 74
2017-07-28 13:00:00 25.7 8 Este 13 Este 0 -- -- 71
2017-07-28 12:00:00 26.7 11 Este 22 Sudeste 0 -- -- 64
2017-07-28 11:00:00 -- 17 Sudeste 24 Sudeste 0 -- -- --
2017-07-28 10:00:00 26.5 11 Sudeste 22 Sudeste 0 -- -- 57
2017-07-28 09:00:00 29.2 8 Sur 27 Sur 0 -- -- 38
2017-07-28 08:00:00 26 12 Sur 26 Sur 0 -- -- 42
2017-07-28 07:00:00 25.3 12 Sur 19 Sur 0 -- -- 43
2017-07-28 06:00:00 22 6 Sur 10 Sudoeste 0 -- -- 64
2017-07-28 05:00:00 21.2 5 Sur 8 Sur 0 -- -- 75
2017-07-28 04:00:00 20.3 2 Sur 8 Sur 0 -- -- 79
2017-07-28 03:00:00 20.1 5 Sur 7 Sur 0 -- -- 89
2017-07-28 02:00:00 20.3 2 Sur 6 Este 0 -- -- 91
2017-07-28 01:00:00 20.8 4 Sur 6 Sur 0 -- -- 91
2017-07-28 00:00:00 21.5 5 Sur 9 Sur 0 -- -- 91
2017-07-27 23:00:00 21.9 6 Sudeste 10 Sudeste 0 -- -- 89
2017-07-27 22:00:00 21.8 4 Sur 6 Sur 0 -- -- 89
2017-07-27 21:00:00 22.2 3 Nordeste 9 Este 0 -- -- 89
2017-07-27 20:00:00 22.6 5 Sudeste 10 Este 0 -- -- 86
2017-07-27 19:00:00 23.3 6 Este 11 Este 0 -- -- 85
2017-07-27 18:00:00 23.8 5 Este 12 Este 0 -- -- 81
2017-07-27 17:00:00 24 6 Este 13 Nordeste 0 -- -- 80
2017-07-27 16:00:00 23.9 8 Este 14 Sudeste 0 -- -- 80
2017-07-27 15:00:00 24.4 8 Este 14 Este 0 -- -- 80
2017-07-27 14:00:00 23.9 8 Este 16 Sudeste 0 -- -- 79
2017-07-27 13:00:00 23.7 10 Este 15 Este 0 -- -- 78
2017-07-27 12:00:00 24.1 9 Este 14 Este 0 -- -- 77
2017-07-27 11:00:00 23.5 7 Este 14 Sudeste 0 -- -- 79
2017-07-27 10:00:00 22.7 5 Este 11 Este 0 -- -- 83
2017-07-27 09:00:00 21.7 5 Este 9 Sudeste 0 -- -- 86
2017-07-27 08:00:00 19.6 0 Calma 4 Norte 0 -- -- 92
2017-07-27 07:00:00 19.9 2 Noroeste 9 Norte 0 -- -- 90
2017-07-27 06:00:00 19.9 4 Noroeste 8 Norte 0 -- -- 90
2017-07-27 05:00:00 19.9 4 Noroeste 9 Norte 0 -- -- 90
2017-07-27 04:00:00 20.1 2 Nordeste 5 Nordeste 0 -- -- 89
2017-07-27 03:00:00 20.4 4 Nordeste 10 Nordeste 0 -- -- 88
2017-07-27 02:00:00 20.6 2 Norte 9 Nordeste 0 -- -- 87
2017-07-27 01:00:00 21.3 5 Nordeste 10 Nordeste 0 -- -- 86
2017-07-27 00:00:00 21.5 2 Norte 11 Norte 0 -- -- 85
2017-07-26 23:00:00 21.5 3 Nordeste 10 Norte 0 -- -- 84
2017-07-26 22:00:00 21.7 4 Nordeste 12 Nordeste 0 -- -- 84
2017-07-26 21:00:00 21.9 4 Nordeste 14 Nordeste 0 -- -- 83
2017-07-26 20:00:00 22.3 5 Nordeste 16 Nordeste 0 -- -- 82
2017-07-26 19:00:00 22.7 6 Norte 13 Este 0 -- -- 80
2017-07-26 18:00:00 23.1 7 Nordeste 16 Nordeste 0 -- -- 77
2017-07-26 17:00:00 23.8 8 Nordeste 19 Nordeste 0 -- -- 75
2017-07-26 16:00:00 23.8 9 Nordeste 21 Nordeste 0 -- -- 76
2017-07-26 15:00:00 24.1 8 Nordeste 19 Nordeste 0 -- -- 75
2017-07-26 14:00:00 23.7 11 Nordeste 18 Nordeste 0 -- -- 75
2017-07-26 13:00:00 23.4 11 Nordeste 17 Nordeste 0 -- -- 76
2017-07-26 12:00:00 23.6 8 Nordeste 14 Nordeste 0 -- -- 76
2017-07-26 11:00:00 23 8 Nordeste 13 Nordeste 0 -- -- 78
2017-07-26 10:00:00 22.3 6 Nordeste 10 Nordeste 0 -- -- 81
2017-07-26 09:00:00 21.8 4 Nordeste 9 Nordeste 0 -- -- 83
2017-07-26 08:00:00 21.1 4 Norte 8 Este 0 -- -- 84
2017-07-26 07:00:00 21 5 Nordeste 11 Nordeste 0 -- -- 85
2017-07-26 06:00:00 21.1 4 Norte 12 Norte 0 -- -- 85
2017-07-26 05:00:00 20.9 3 Norte 15 Nordeste 0 -- -- 84
2017-07-26 04:00:00 21.2 5 Nordeste 12 Este 0 -- -- 86
2017-07-26 03:00:00 21.2 4 Nordeste 10 Nordeste 0 -- -- 86
2017-07-26 02:00:00 21.3 4 Nordeste 11 Norte 0 -- -- 87
2017-07-26 01:00:00 21.4 3 Nordeste 12 Nordeste 0 -- -- 87
2017-07-26 00:00:00 21.6 5 Nordeste 11 Nordeste 0 -- -- 86
2017-07-25 23:00:00 21.7 4 Nordeste 16 Nordeste 0 -- -- 86
2017-07-25 22:00:00 21.9 4 Norte 13 Nordeste 0 -- -- 86
2017-07-25 21:00:00 22 8 Nordeste 14 Nordeste 0 -- -- 84
2017-07-25 20:00:00 22.6 5 Nordeste 15 Nordeste 0 -- -- 82
2017-07-25 19:00:00 23.1 6 Nordeste 12 Nordeste 0 -- -- 81
2017-07-25 18:00:00 24 10 Nordeste 15 Nordeste 0 -- -- 77
2017-07-25 17:00:00 24 8 Nordeste 15 Nordeste 0 -- -- 77
2017-07-25 16:00:00 24.4 9 Nordeste 16 Nordeste 0 -- -- 76
2017-07-25 15:00:00 24.3 7 Nordeste 13 Nordeste 0 -- -- 77
2017-07-25 14:00:00 23.6 6 Este 11 Nordeste 0 -- -- 78
2017-07-25 13:00:00 23.5 6 Nordeste 15 Este 0 -- -- 79
2017-07-25 12:00:00 23.1 6 Nordeste 15 Nordeste 0 -- -- 81
2017-07-25 11:00:00 23.2 6 Nordeste 16 Este 0 -- -- 77
2017-07-25 10:00:00 22.4 6 Nordeste 13 Nordeste 0 -- -- 82
2017-07-25 09:00:00 21.7 5 Nordeste 12 Nordeste 0 -- -- 85
2017-07-25 08:00:00 21.4 6 Nordeste 12 Nordeste 0 -- -- 86
2017-07-25 07:00:00 21.2 6 Nordeste 14 Nordeste 0 -- -- 86
2017-07-25 06:00:00 21.3 5 Nordeste 10 Nordeste 0 -- -- 87
2017-07-25 05:00:00 21.3 3 Nordeste 12 Este 0 -- -- 85
2017-07-25 04:00:00 21.4 4 Nordeste 12 Nordeste 0 -- -- 87
2017-07-25 03:00:00 21.4 6 Nordeste 12 Nordeste 0 -- -- 87
2017-07-25 02:00:00 21.6 3 Norte 9 Norte 0 -- -- 88
2017-07-25 01:00:00 21.7 4 Norte 11 Nordeste 0 -- -- 88
2017-07-25 00:00:00 21.8 3 Nordeste 12 Nordeste 0 -- -- 88
2017-07-24 23:00:00 21.8 5 Nordeste 14 Este 0 -- -- 88
2017-07-24 22:00:00 22 4 Nordeste 13 Nordeste 0 -- -- 87
2017-07-24 21:00:00 22.2 7 Norte 15 Norte 0 -- -- 86
2017-07-24 20:00:00 22.5 10 Norte 19 Norte 0 -- -- 84
2017-07-24 19:00:00 23.2 9 Norte 16 Norte 0 -- -- 81
2017-07-24 18:00:00 23.9 8 Nordeste 16 Nordeste 0 -- -- 78
2017-07-24 17:00:00 24.4 9 Nordeste 18 Norte 0 -- -- 76
2017-07-24 16:00:00 24.3 10 Nordeste 18 Nordeste 0 -- -- 75
2017-07-24 15:00:00 24.6 9 Nordeste 17 Nordeste 0 -- -- 73
2017-07-24 14:00:00 24.5 11 Nordeste 20 Nordeste 0 -- -- 74
2017-07-24 13:00:00 24.2 10 Nordeste 17 Nordeste 0 -- -- 75
2017-07-24 12:00:00 23.6 10 Nordeste 18 Nordeste 0 -- -- 77
2017-07-24 11:00:00 23.2 11 Nordeste 18 Nordeste 0 -- -- 78
2017-07-24 10:00:00 22.7 12 Nordeste 18 Nordeste 0 -- -- 80
2017-07-24 09:00:00 21.7 8 Nordeste 18 Nordeste 0 -- -- 82
2017-07-24 08:00:00 21.1 7 Nordeste 16 Nordeste 0 -- -- 85
2017-07-24 07:00:00 20.7 5 Norte 14 Nordeste 0 -- -- 85
2017-07-24 06:00:00 20.7 3 Norte 17 Nordeste 0 -- -- 84
2017-07-24 05:00:00 20.8 5 Norte 15 Nordeste 0 -- -- 84
2017-07-24 04:00:00 21.1 5 Nordeste 18 Nordeste 0 -- -- 84
2017-07-24 03:00:00 21.2 6 Nordeste 21 Nordeste 0 -- -- 80
2017-07-24 02:00:00 21.3 13 Nordeste 19 Nordeste 0 -- -- 81
2017-07-24 01:00:00 21.5 6 Nordeste 20 Nordeste 0 -- -- 84
2017-07-24 00:00:00 21.6 3 Este 13 Nordeste 0 -- -- 81
2017-07-23 23:00:00 21.6 6 Este 21 Nordeste 0 -- -- 81
2017-07-23 22:00:00 21.7 8 Nordeste 19 Nordeste 0 -- -- 83
2017-07-23 21:00:00 21.8 13 Nordeste 22 Nordeste 0 -- -- 81
2017-07-23 20:00:00 22.6 12 Nordeste 29 Nordeste 0 -- -- 77
2017-07-23 19:00:00 23.2 11 Nordeste 22 Este 0 -- -- 74
2017-07-23 18:00:00 23.9 10 Nordeste 21 Este 0 -- -- 74
2017-07-23 17:00:00 24.3 9 Nordeste 17 Nordeste 0 -- -- 72
2017-07-23 16:00:00 24.1 6 Nordeste 17 Nordeste 0 -- -- 71
2017-07-23 15:00:00 24.7 9 Nordeste 19 Este 0 -- -- 69
2017-07-23 14:00:00 24.6 14 Nordeste 21 Nordeste 0 -- -- 68
2017-07-23 13:00:00 24.2 8 Nordeste 16 Nordeste 0 -- -- 71
2017-07-23 12:00:00 24 10 Nordeste 17 Nordeste 0 -- -- 68
2017-07-23 11:00:00 23.7 9 Nordeste 18 Nordeste 0 -- -- 70
2017-07-23 10:00:00 21.8 8 Este 19 Este 0 -- -- 79
2017-07-23 09:00:00 22.2 12 Este 21 Nordeste 0 -- -- 75
2017-07-23 08:00:00 20.8 12 Nordeste 26 Nordeste 0 -- -- 79
2017-07-23 07:00:00 20.8 6 Nordeste 16 Nordeste 0 -- -- 84
2017-07-23 06:00:00 20.5 8 Nordeste 20 Nordeste 0 -- -- 82
2017-07-23 05:00:00 20.6 10 Nordeste 20 Nordeste 0 -- -- 79
2017-07-23 04:00:00 20.7 8 Este 19 Nordeste 0 -- -- 79
2017-07-23 03:00:00 20.8 9 Este 22 Nordeste 0 -- -- 78
2017-07-23 02:00:00 20.9 9 Nordeste 21 Nordeste 0 -- -- 79
2017-07-23 01:00:00 21.1 8 Este 19 Nordeste 0 -- -- 80
2017-07-23 00:00:00 20.9 12 Nordeste 19 Nordeste 0 -- -- 80
2017-07-22 23:00:00 21.3 9 Este 20 Este 0 -- -- 81
2017-07-22 22:00:00 21.3 4 Nordeste 21 Este 0 -- -- 80
2017-07-22 21:00:00 21.8 7 Este 21 Nordeste 0 -- -- 77
2017-07-22 20:00:00 22.2 13 Nordeste 21 Nordeste 0 -- -- 74
2017-07-22 19:00:00 22.8 9 Nordeste 21 Nordeste 0 -- -- 74
2017-07-22 18:00:00 23.3 12 Nordeste 27 Nordeste 0 -- -- 72
2017-07-22 17:00:00 23.7 9 Nordeste 18 Nordeste 0 -- -- 70
2017-07-22 16:00:00 24.7 10 Nordeste 21 Nordeste 0 -- -- 62
2017-07-22 15:00:00 24 12 Nordeste 20 Nordeste 0 -- -- 68
2017-07-22 14:00:00 22.9 9 Nordeste 17 Nordeste 0 -- -- 73
2017-07-22 13:00:00 22.2 5 Norte 25 Nordeste 0 -- -- 77
2017-07-22 12:00:00 23.1 6 Nordeste 21 Este 0 -- -- 69
2017-07-22 11:00:00 22.4 13 Este 25 Nordeste 0 -- -- 72
2017-07-22 10:00:00 20.9 9 Este 22 Este 0 -- -- 80
2017-07-22 09:00:00 21 5 Nordeste 27 Nordeste 0 -- -- 82
2017-07-22 08:00:00 20.7 5 Nordeste 24 Este 0 -- -- 83
2017-07-22 07:00:00 20.7 3 Norte 18 Nordeste 0 -- -- 80
2017-07-22 06:00:00 20.6 13 Nordeste 25 Este 0 -- -- 81
2017-07-22 05:00:00 20.8 6 Norte 19 Nordeste 0 -- -- 78
2017-07-22 04:00:00 20.8 7 Nordeste 19 Nordeste 0 -- -- 82
2017-07-22 03:00:00 20.9 5 Nordeste 20 Nordeste 0 -- -- 80
2017-07-22 02:00:00 20.7 11 Nordeste 22 Nordeste 0 -- -- 80
2017-07-22 01:00:00 20.6 8 Nordeste 20 Nordeste 0 -- -- 78
2017-07-22 00:00:00 21 8 Nordeste 19 Este 0 -- -- 75
2017-07-21 23:00:00 21 7 Nordeste 19 Nordeste 0 -- -- 80
2017-07-21 22:00:00 21.2 6 Nordeste 17 Nordeste 0 -- -- 78
2017-07-21 21:00:00 21.4 8 Nordeste 19 Este 0 -- -- 75
2017-07-21 20:00:00 22.5 13 Nordeste 21 Nordeste 0 -- -- 70
2017-07-21 19:00:00 23.3 15 Nordeste 23 Este 0 -- -- 65
2017-07-21 18:00:00 23.4 8 Nordeste 21 Nordeste 0 -- -- 69
2017-07-21 17:00:00 24.1 13 Nordeste 22 Este 0 -- -- 65
2017-07-21 16:00:00 24.2 12 Nordeste 21 Nordeste 0 -- -- 68
2017-07-21 15:00:00 23.2 8 Nordeste 16 Nordeste 0 -- -- 68
2017-07-21 14:00:00 24.4 10 Nordeste 18 Este 0 -- -- 61
2017-07-21 13:00:00 24.3 12 Nordeste 28 Este 0 -- -- 63
2017-07-21 12:00:00 22.7 11 Nordeste 23 Nordeste 0 -- -- 69
2017-07-21 11:00:00 23 9 Nordeste 20 Nordeste 0 -- -- 68
2017-07-21 10:00:00 22.8 12 Nordeste 21 Nordeste 0 -- -- 70
2017-07-21 09:00:00 22.1 14 Nordeste 24 Nordeste 0 -- -- 75
2017-07-21 08:00:00 20.8 5 Nordeste 20 Nordeste 0 -- -- 80
2017-07-21 07:00:00 20.7 7 Nordeste 17 Nordeste 0 -- -- 81
2017-07-21 06:00:00 20.5 8 Nordeste 19 Nordeste 0 -- -- 79
2017-07-21 05:00:00 20.7 8 Nordeste 18 Nordeste 0 -- -- 81
2017-07-21 04:00:00 20.4 8 Nordeste 19 Nordeste 0 -- -- 82
2017-07-21 03:00:00 20.6 13 Nordeste 21 Nordeste 0 -- -- 81
2017-07-21 02:00:00 21 8 Nordeste 21 Nordeste 0 -- -- 83
2017-07-21 01:00:00 21.3 12 Nordeste 19 Nordeste 0 -- -- 84
2017-07-21 00:00:00 21.2 4 Nordeste 15 Nordeste 0 -- -- 83
2017-07-20 23:00:00 21.2 10 Nordeste 19 Nordeste 0 -- -- 82
2017-07-20 22:00:00 21.6 12 Nordeste 20 Nordeste 0 -- -- 84
2017-07-20 21:00:00 21.9 6 Norte 13 Nordeste 0 -- -- 81
2017-07-20 20:00:00 22.9 6 Nordeste 15 Nordeste 0 -- -- 78
2017-07-20 19:00:00 23.6 7 Nordeste 19 Nordeste 0 -- -- 76
2017-07-20 18:00:00 24 12 Nordeste 22 Nordeste 0 -- -- 74
2017-07-20 17:00:00 24.9 14 Nordeste 23 Nordeste 0 -- -- 72
2017-07-20 16:00:00 24.9 15 Nordeste 28 Nordeste 0 -- -- 72
2017-07-20 15:00:00 24.7 10 Nordeste 19 Nordeste 0 -- -- 72
2017-07-20 14:00:00 24 11 Nordeste 18 Nordeste 0 -- -- 77
2017-07-20 13:00:00 23.3 5 Este 12 Nordeste 0 -- -- 82
2017-07-20 12:00:00 21.4 2 Nordeste 18 Este 0.2 -- -- 93
2017-07-20 11:00:00 21.5 5 Nordeste 18 Este 0.6 -- -- 91
2017-07-20 10:00:00 21.5 5 Este 12 Nordeste 0 -- -- 89
2017-07-20 09:00:00 21.4 2 Oeste 10 Nordeste 0 -- -- 85
2017-07-20 08:00:00 20.6 3 Noroeste 10 Este 0 -- -- 89
2017-07-20 07:00:00 20.7 5 Este 16 Nordeste 0 -- -- 89
2017-07-20 06:00:00 21.4 5 Este 14 Este 0 -- -- 83
2017-07-20 05:00:00 21.6 3 Este 14 Nordeste 0 -- -- 77
2017-07-20 04:00:00 21.3 3 Nordeste 13 Este 0 -- -- 78
2017-07-20 03:00:00 21.1 4 Norte 14 Nordeste 0 -- -- 79
2017-07-20 02:00:00 21.1 8 Norte 19 Nordeste 0 -- -- 80
2017-07-20 01:00:00 21.1 8 Nordeste 16 Nordeste 0 -- -- 78
2017-07-20 00:00:00 21.3 5 Nordeste 18 Este 0 -- -- 80
2017-07-19 23:00:00 21.3 10 Nordeste 18 Nordeste 0 -- -- 80
2017-07-19 22:00:00 21.4 9 Nordeste 18 Nordeste 0 -- -- 77
2017-07-19 21:00:00 21.6 5 Nordeste 17 Nordeste 0 -- -- 77
2017-07-19 20:00:00 22.2 9 Nordeste 17 Este 0 -- -- 76
2017-07-19 19:00:00 22.4 5 Nordeste 16 Nordeste 0 -- -- 74
2017-07-19 18:00:00 23 6 Nordeste 15 Nordeste 0 -- -- 73
2017-07-19 17:00:00 23.4 7 Nordeste 17 Este 0 -- -- 71
2017-07-19 16:00:00 23.6 9 Nordeste 18 Nordeste 0 -- -- 72
2017-07-19 15:00:00 23.6 10 Nordeste 18 Nordeste 0 -- -- 71
2017-07-19 14:00:00 24 10 Nordeste 17 Nordeste 0 -- -- 72
2017-07-19 13:00:00 23.9 9 Nordeste 17 Nordeste 0 -- -- 71
2017-07-19 12:00:00 22.9 9 Nordeste 16 Este 0 -- -- 73
2017-07-19 11:00:00 22.5 7 Nordeste 19 Nordeste 0 -- -- 74
2017-07-19 10:00:00 22 6 Nordeste 13 Nordeste 0 -- -- 79
2017-07-19 09:00:00 21.3 5 Nordeste 14 Nordeste 0 -- -- 80
2017-07-19 08:00:00 21 4 Nordeste 13 Nordeste 0 -- -- 81
2017-07-19 07:00:00 20.9 4 Norte 14 Nordeste 0 -- -- 81
2017-07-19 06:00:00 20.9 4 Norte 15 Nordeste 0 -- -- 81
2017-07-19 05:00:00 20.9 5 Norte 13 Nordeste 0 -- -- 81
2017-07-19 04:00:00 21 6 Nordeste 15 Nordeste 0 -- -- 82
2017-07-19 03:00:00 21 5 Norte 13 Nordeste 0 -- -- 80
2017-07-19 02:00:00 21.2 4 Norte 10 Este 0 -- -- 81
2017-07-19 01:00:00 21.3 5 Nordeste 14 Nordeste 0 -- -- 82
2017-07-19 00:00:00 21.4 4 Nordeste 16 Este 0 -- -- 81